createdAt,value
2023-01-17T00:00:00.859Z,99350
2023-01-17T00:01:04.962Z,99350
2023-01-17T00:02:00.910Z,99350
2023-01-17T00:03:00.977Z,99350
2023-01-17T00:04:00.881Z,99350
2023-01-17T00:05:00.868Z,99330
2023-01-17T00:06:03.154Z,99340
2023-01-17T00:07:00.981Z,99330
2023-01-17T00:08:00.779Z,99330
2023-01-17T00:09:00.781Z,99330
2023-01-17T00:10:02.392Z,99310
2023-01-17T00:11:00.786Z,99310
2023-01-17T00:12:00.795Z,99310
2023-01-17T00:13:01.789Z,99310
2023-01-17T00:14:00.769Z,99300
2023-01-17T00:15:00.812Z,99300
2023-01-17T00:16:00.845Z,99300
2023-01-17T00:17:00.780Z,99300
2023-01-17T00:18:01.067Z,99290
2023-01-17T00:19:00.810Z,99290
2023-01-17T00:20:00.752Z,99290
2023-01-17T00:21:00.779Z,99280
2023-01-17T00:22:00.779Z,99290
2023-01-17T00:23:04.132Z,99280
2023-01-17T00:24:00.805Z,99270
2023-01-17T00:25:00.784Z,99280
2023-01-17T00:26:00.961Z,99280
2023-01-17T00:27:00.768Z,99280
2023-01-17T00:28:01.123Z,99270
2023-01-17T00:29:01.003Z,99270
2023-01-17T00:30:00.785Z,99270
2023-01-17T00:31:01.404Z,99260
2023-01-17T00:32:00.777Z,99260
2023-01-17T00:33:00.898Z,99260
2023-01-17T00:34:01.883Z,99260
2023-01-17T00:35:00.755Z,99260
2023-01-17T00:36:01.448Z,99250
2023-01-17T00:37:00.757Z,99240
2023-01-17T00:38:04.872Z,99250
2023-01-17T00:39:00.748Z,99250
2023-01-17T00:40:01.108Z,99250
2023-01-17T00:41:03.429Z,99250
2023-01-17T00:42:00.785Z,99250
2023-01-17T00:43:00.885Z,99240
2023-01-17T00:44:00.780Z,99250
2023-01-17T00:45:00.766Z,99240
2023-01-17T00:46:00.833Z,99240
2023-01-17T00:47:00.830Z,99240
2023-01-17T00:48:00.755Z,99240
2023-01-17T00:49:00.885Z,99240
2023-01-17T00:50:00.862Z,99240
2023-01-17T00:51:02.007Z,99220
2023-01-17T00:52:00.796Z,99220
2023-01-17T00:53:02.878Z,99220
2023-01-17T00:54:00.821Z,99220
2023-01-17T00:55:00.782Z,99210
2023-01-17T00:56:01.327Z,99220
2023-01-17T00:57:01.282Z,99200
2023-01-17T00:58:08.471Z,99200
2023-01-17T00:59:00.751Z,99210
2023-01-17T01:00:00.786Z,99190
2023-01-17T01:01:04.395Z,99190
2023-01-17T01:02:01.067Z,99190
2023-01-17T01:03:06.601Z,99190
2023-01-17T01:04:00.815Z,99190
2023-01-17T01:05:01.036Z,99180
2023-01-17T01:06:03.389Z,99180
2023-01-17T01:07:00.808Z,99180
2023-01-17T01:08:01.135Z,99180
2023-01-17T01:09:00.784Z,99180
2023-01-17T01:10:00.904Z,99170
2023-01-17T01:11:03.256Z,99170
2023-01-17T01:12:00.759Z,99170
2023-01-17T01:13:00.996Z,99180
2023-01-17T01:14:01.181Z,99170
2023-01-17T01:15:00.836Z,99170
2023-01-17T01:16:01.359Z,99170
2023-01-17T01:17:00.802Z,99170
2023-01-17T01:18:04.814Z,99170
2023-01-17T01:19:00.952Z,99170
2023-01-17T01:20:00.792Z,99160
2023-01-17T01:21:01.486Z,99160
2023-01-17T01:22:00.788Z,99160
2023-01-17T01:23:04.833Z,99150
2023-01-17T01:24:00.973Z,99160
2023-01-17T01:25:00.907Z,99160
2023-01-17T01:26:02.129Z,99160
2023-01-17T01:27:00.846Z,99160
2023-01-17T01:28:05.117Z,99160
2023-01-17T01:29:00.780Z,99150
2023-01-17T01:30:01.062Z,99160
2023-01-17T01:31:01.546Z,99140
2023-01-17T01:32:00.867Z,99150
2023-01-17T01:33:06.289Z,99150
2023-01-17T01:34:00.806Z,99150
2023-01-17T01:35:01.023Z,99140
2023-01-17T01:36:00.808Z,99140
2023-01-17T01:37:00.861Z,99140
2023-01-17T01:38:01.083Z,99140
2023-01-17T01:39:00.797Z,99130
2023-01-17T01:40:00.777Z,99140
2023-01-17T01:41:00.765Z,99130
2023-01-17T01:42:00.770Z,99140
2023-01-17T01:43:00.762Z,99140
2023-01-17T01:44:00.897Z,99120
2023-01-17T01:45:02.675Z,99120
2023-01-17T01:46:01.109Z,99140
2023-01-17T01:47:01.155Z,99130
2023-01-17T01:48:02.913Z,99130
2023-01-17T01:49:04.638Z,99130
2023-01-17T01:50:02.111Z,99130
2023-01-17T01:51:03.632Z,99130
2023-01-17T01:52:02.398Z,99140
2023-01-17T01:53:01.844Z,99140
2023-01-17T01:54:04.061Z,99140
2023-01-17T01:55:03.385Z,99140
2023-01-17T01:56:02.400Z,99140
2023-01-17T01:57:02.354Z,99140
2023-01-17T01:58:03.447Z,99140
2023-01-17T01:59:02.897Z,99140
2023-01-17T02:00:03.830Z,99140
2023-01-17T02:01:00.976Z,99140
2023-01-17T02:02:00.984Z,99150
2023-01-17T02:03:03.573Z,99150
2023-01-17T02:04:01.510Z,99140
2023-01-17T02:05:03.072Z,99140
2023-01-17T02:06:06.082Z,99140
2023-01-17T02:07:03.693Z,99120
2023-01-17T02:08:06.229Z,99120
2023-01-17T02:09:03.204Z,99130
2023-01-17T02:10:01.608Z,99120
2023-01-17T02:11:01.119Z,99120
2023-01-17T02:12:01.860Z,99130
2023-01-17T02:13:01.432Z,99110
2023-01-17T02:14:01.105Z,99120
2023-01-17T02:15:01.312Z,99120
2023-01-17T02:16:10.662Z,99120
2023-01-17T02:17:10.650Z,99120
2023-01-17T02:18:08.166Z,99120
2023-01-17T02:19:01.971Z,99110
2023-01-17T02:20:10.649Z,99110
2023-01-17T02:21:01.790Z,99110
2023-01-17T02:22:04.150Z,99100
2023-01-17T02:23:10.643Z,99100
2023-01-17T02:24:10.665Z,99100
2023-01-17T02:25:01.779Z,99100
2023-01-17T02:26:10.641Z,99100
2023-01-17T02:27:00.774Z,99110
2023-01-17T02:28:08.209Z,99100
2023-01-17T02:29:01.774Z,99100
2023-01-17T02:30:10.689Z,99090
2023-01-17T02:31:04.691Z,99110
2023-01-17T02:32:08.190Z,99100
2023-01-17T02:33:10.624Z,99110
2023-01-17T02:34:10.701Z,99100
2023-01-17T02:35:04.385Z,99100
2023-01-17T02:36:00.757Z,99110
2023-01-17T02:37:06.643Z,99100
2023-01-17T02:38:07.379Z,99090
2023-01-17T02:39:06.931Z,99100
2023-01-17T02:40:03.990Z,99100
2023-01-17T02:41:04.532Z,99090
2023-01-17T02:42:04.053Z,99090
2023-01-17T02:43:03.235Z,99100
2023-01-17T02:44:01.055Z,99100
2023-01-17T02:45:01.544Z,99100
2023-01-17T02:46:00.900Z,99100
2023-01-17T02:47:00.775Z,99090
2023-01-17T02:48:00.755Z,99080
2023-01-17T02:49:00.783Z,99080
2023-01-17T02:50:10.623Z,99090
2023-01-17T02:51:10.648Z,99080
2023-01-17T02:52:04.166Z,99080
2023-01-17T02:53:01.802Z,99090
2023-01-17T02:54:00.746Z,99080
2023-01-17T02:55:00.739Z,99080
2023-01-17T02:56:08.181Z,99080
2023-01-17T02:57:10.664Z,99070
2023-01-17T02:58:06.238Z,99080
2023-01-17T02:59:04.137Z,99070
2023-01-17T03:00:08.143Z,99080
2023-01-17T03:01:10.815Z,99080
2023-01-17T03:02:01.962Z,99080
2023-01-17T03:03:10.790Z,99080
2023-01-17T03:04:04.900Z,99070
2023-01-17T03:05:04.178Z,99060
2023-01-17T03:06:05.088Z,99050
2023-01-17T03:07:04.319Z,99050
2023-01-17T03:08:01.367Z,99050
2023-01-17T03:09:01.531Z,99060
2023-01-17T03:10:02.005Z,99050
2023-01-17T03:11:00.797Z,99050
2023-01-17T03:12:02.695Z,99050
2023-01-17T03:13:01.945Z,99040
2023-01-17T03:14:00.933Z,99040
2023-01-17T03:15:00.813Z,99030
2023-01-17T03:16:02.258Z,99040
2023-01-17T03:17:00.754Z,99020
2023-01-17T03:18:03.494Z,99030
2023-01-17T03:19:00.960Z,99030
2023-01-17T03:20:00.760Z,99030
2023-01-17T03:21:00.930Z,99020
2023-01-17T03:22:00.777Z,99020
2023-01-17T03:23:01.052Z,99010
2023-01-17T03:24:00.894Z,99020
2023-01-17T03:25:00.793Z,99020
2023-01-17T03:26:00.833Z,99010
2023-01-17T03:27:00.832Z,99020
2023-01-17T03:28:00.791Z,99020
2023-01-17T03:29:01.049Z,99010
2023-01-17T03:30:00.772Z,99000
2023-01-17T03:31:00.851Z,99010
2023-01-17T03:32:00.773Z,99000
2023-01-17T03:33:00.816Z,99000
2023-01-17T03:34:01.176Z,98990
2023-01-17T03:35:00.833Z,98990
2023-01-17T03:36:00.776Z,98960
2023-01-17T03:37:00.788Z,98980
2023-01-17T03:38:00.776Z,98980
2023-01-17T03:39:00.832Z,98970
2023-01-17T03:40:00.782Z,98970
2023-01-17T03:41:00.758Z,98970
2023-01-17T03:42:00.780Z,98980
2023-01-17T03:43:00.752Z,98970
2023-01-17T03:44:00.840Z,98970
2023-01-17T03:45:01.029Z,98970
2023-01-17T03:46:02.306Z,98970
2023-01-17T03:47:00.804Z,98960
2023-01-17T03:48:00.773Z,98960
2023-01-17T03:49:00.756Z,98960
2023-01-17T03:50:01.072Z,98960
2023-01-17T03:51:00.800Z,98950
2023-01-17T03:52:00.758Z,98950
2023-01-17T03:53:00.855Z,98960
2023-01-17T03:54:00.790Z,98950
2023-01-17T03:55:00.816Z,98950
2023-01-17T03:56:01.040Z,98950
2023-01-17T03:57:00.805Z,98940
2023-01-17T03:58:00.779Z,98940
2023-01-17T03:59:00.851Z,98940
2023-01-17T04:00:00.836Z,98950
2023-01-17T04:01:00.987Z,98950
2023-01-17T04:02:00.864Z,98920
2023-01-17T04:03:00.769Z,98940
2023-01-17T04:04:00.779Z,98940
2023-01-17T04:05:00.813Z,98930
2023-01-17T04:06:00.795Z,98940
2023-01-17T04:07:01.000Z,98930
2023-01-17T04:08:00.760Z,98920
2023-01-17T04:09:00.781Z,98920
2023-01-17T04:10:00.763Z,98930
2023-01-17T04:11:00.765Z,98930
2023-01-17T04:12:01.124Z,98940
2023-01-17T04:13:00.765Z,98910
2023-01-17T04:14:00.762Z,98930
2023-01-17T04:15:00.948Z,98920
2023-01-17T04:16:00.765Z,98920
2023-01-17T04:17:00.778Z,98910
2023-01-17T04:18:02.731Z,98920
2023-01-17T04:19:00.760Z,98920
2023-01-17T04:20:00.786Z,98920
2023-01-17T04:21:00.755Z,98920
2023-01-17T04:22:00.733Z,98930
2023-01-17T04:23:00.762Z,98920
2023-01-17T04:24:00.754Z,98920
2023-01-17T04:25:00.751Z,98920
2023-01-17T04:26:00.778Z,98920
2023-01-17T04:27:00.876Z,98910
2023-01-17T04:28:01.101Z,98910
2023-01-17T04:29:01.176Z,98920
2023-01-17T04:30:00.740Z,98920
2023-01-17T04:31:00.841Z,98910
2023-01-17T04:32:00.791Z,98910
2023-01-17T04:33:01.281Z,98920
2023-01-17T04:34:00.766Z,98910
2023-01-17T04:35:00.766Z,98920
2023-01-17T04:36:00.763Z,98910
2023-01-17T04:37:00.770Z,98910
2023-01-17T04:38:00.809Z,98890
2023-01-17T04:39:00.775Z,98900
2023-01-17T04:40:01.019Z,98900
2023-01-17T04:41:00.766Z,98890
2023-01-17T04:42:00.776Z,98890
2023-01-17T04:43:00.773Z,98900
2023-01-17T04:44:00.947Z,98900
2023-01-17T04:45:01.075Z,98890
2023-01-17T04:46:00.810Z,98900
2023-01-17T04:47:00.902Z,98900
2023-01-17T04:48:02.969Z,98880
2023-01-17T04:49:00.748Z,98900
2023-01-17T04:50:00.849Z,98890
2023-01-17T04:51:01.733Z,98890
2023-01-17T04:52:00.757Z,98900
2023-01-17T04:53:00.767Z,98900
2023-01-17T04:54:00.765Z,98890
2023-01-17T04:55:01.059Z,98890
2023-01-17T04:56:00.745Z,98900
2023-01-17T04:57:00.886Z,98900
2023-01-17T04:58:00.766Z,98900
2023-01-17T04:59:00.777Z,98880
2023-01-17T05:00:00.903Z,98890
2023-01-17T05:01:02.779Z,98880
2023-01-17T05:02:00.999Z,98890
2023-01-17T05:03:01.180Z,98890
2023-01-17T05:04:00.742Z,98890
2023-01-17T05:05:00.739Z,98870
2023-01-17T05:06:01.004Z,98880
2023-01-17T05:07:00.846Z,98880
2023-01-17T05:08:00.961Z,98870
2023-01-17T05:09:00.778Z,98860
2023-01-17T05:10:00.957Z,98870
2023-01-17T05:11:00.771Z,98870
2023-01-17T05:12:00.917Z,98860
2023-01-17T05:13:00.883Z,98860
2023-01-17T05:14:00.786Z,98870
2023-01-17T05:15:01.020Z,98850
2023-01-17T05:16:00.819Z,98860
2023-01-17T05:17:00.789Z,98870
2023-01-17T05:18:00.767Z,98870
2023-01-17T05:19:00.751Z,98870
2023-01-17T05:20:00.779Z,98860
2023-01-17T05:21:01.326Z,98860
2023-01-17T05:22:00.773Z,98860
2023-01-17T05:23:00.838Z,98860
2023-01-17T05:24:00.935Z,98850
2023-01-17T05:25:00.820Z,98860
2023-01-17T05:26:00.783Z,98860
2023-01-17T05:27:00.730Z,98860
2023-01-17T05:28:01.085Z,98850
2023-01-17T05:29:00.741Z,98850
2023-01-17T05:30:00.785Z,98850
2023-01-17T05:31:01.063Z,98860
2023-01-17T05:32:00.791Z,98870
2023-01-17T05:33:00.755Z,98860
2023-01-17T05:34:00.879Z,98850
2023-01-17T05:35:00.929Z,98840
2023-01-17T05:36:00.752Z,98860
2023-01-17T05:37:00.951Z,98860
2023-01-17T05:38:01.222Z,98840
2023-01-17T05:39:00.781Z,98850
2023-01-17T05:40:00.748Z,98870
2023-01-17T05:41:01.048Z,98860
2023-01-17T05:42:00.763Z,98870
2023-01-17T05:43:01.195Z,98870
2023-01-17T05:44:01.234Z,98860
2023-01-17T05:45:00.797Z,98860
2023-01-17T05:46:01.058Z,98870
2023-01-17T05:47:00.868Z,98860
2023-01-17T05:48:01.158Z,98860
2023-01-17T05:49:00.859Z,98860
2023-01-17T05:50:00.739Z,98870
2023-01-17T05:51:00.816Z,98870
2023-01-17T05:52:00.766Z,98870
2023-01-17T05:53:02.210Z,98850
2023-01-17T05:54:00.754Z,98860
2023-01-17T05:55:00.835Z,98880
2023-01-17T05:56:00.777Z,98870
2023-01-17T05:57:00.910Z,98870
2023-01-17T05:58:00.832Z,98880
2023-01-17T05:59:00.856Z,98860
2023-01-17T06:00:00.824Z,98880
2023-01-17T06:01:00.840Z,98880
2023-01-17T06:02:00.765Z,98870
2023-01-17T06:03:00.793Z,98870
2023-01-17T06:04:00.764Z,98880
2023-01-17T06:05:03.259Z,98890
2023-01-17T06:06:00.762Z,98880
2023-01-17T06:07:00.774Z,98890
2023-01-17T06:08:00.901Z,98900
2023-01-17T06:09:00.750Z,98900
2023-01-17T06:10:00.761Z,98900
2023-01-17T06:11:00.786Z,98900
2023-01-17T06:12:00.756Z,98900
2023-01-17T06:13:00.747Z,98900
2023-01-17T06:14:00.737Z,98910
2023-01-17T06:15:00.742Z,98910
2023-01-17T06:16:00.898Z,98910
2023-01-17T06:17:00.729Z,98900
2023-01-17T06:18:09.301Z,98910
2023-01-17T06:19:01.008Z,98900
2023-01-17T06:20:00.798Z,98910
2023-01-17T06:21:00.778Z,98910
2023-01-17T06:22:02.707Z,98920
2023-01-17T06:23:01.417Z,98920
2023-01-17T06:24:02.245Z,98910
2023-01-17T06:25:00.881Z,98920
2023-01-17T06:26:01.561Z,98920
2023-01-17T06:27:00.921Z,98910
2023-01-17T06:28:01.046Z,98910
2023-01-17T06:29:00.784Z,98920
2023-01-17T06:30:01.226Z,98920
2023-01-17T06:31:04.696Z,98920
2023-01-17T06:32:01.816Z,98920
2023-01-17T06:33:01.092Z,98920
2023-01-17T06:34:01.827Z,98920
2023-01-17T06:35:00.768Z,98930
2023-01-17T06:36:00.784Z,98930
2023-01-17T06:37:00.769Z,98920
2023-01-17T06:38:00.771Z,98930
2023-01-17T06:39:00.769Z,98930
2023-01-17T06:40:00.772Z,98930
2023-01-17T06:41:02.939Z,98930
2023-01-17T06:42:00.988Z,98930
2023-01-17T06:43:01.785Z,98930
2023-01-17T06:44:00.766Z,98930
2023-01-17T06:45:00.759Z,98930
2023-01-17T06:46:00.998Z,98940
2023-01-17T06:47:00.811Z,98930
2023-01-17T06:48:01.532Z,98930
2023-01-17T06:49:00.824Z,98940
2023-01-17T06:50:00.922Z,98940
2023-01-17T06:51:00.735Z,98940
2023-01-17T06:52:01.008Z,98940
2023-01-17T06:53:02.118Z,98940
2023-01-17T06:54:00.775Z,98930
2023-01-17T06:55:01.028Z,98940
2023-01-17T06:56:00.783Z,98940
2023-01-17T06:57:00.800Z,98940
2023-01-17T06:58:01.195Z,98950
2023-01-17T06:59:01.117Z,98950
2023-01-17T07:00:01.027Z,98950
2023-01-17T07:01:08.813Z,98950
2023-01-17T07:02:00.793Z,98950
2023-01-17T07:03:01.206Z,98960
2023-01-17T07:04:00.856Z,98960
2023-01-17T07:05:00.785Z,98960
2023-01-17T07:06:01.466Z,98960
2023-01-17T07:07:00.742Z,98970
2023-01-17T07:08:00.742Z,98960
2023-01-17T07:09:00.784Z,98970
2023-01-17T07:10:00.773Z,98960
2023-01-17T07:11:02.642Z,98970
2023-01-17T07:12:00.752Z,98970
2023-01-17T07:13:00.878Z,98970
2023-01-17T07:14:00.901Z,98960
2023-01-17T07:15:00.865Z,98960
2023-01-17T07:16:01.257Z,98960
2023-01-17T07:17:00.989Z,98950
2023-01-17T07:18:01.532Z,98950
2023-01-17T07:19:00.751Z,98940
2023-01-17T07:20:00.883Z,98950
2023-01-17T07:21:00.756Z,98950
2023-01-17T07:22:00.864Z,98940
2023-01-17T07:23:01.703Z,98940
2023-01-17T07:24:00.744Z,98940
2023-01-17T07:25:00.977Z,98940
2023-01-17T07:26:00.778Z,98940
2023-01-17T07:27:00.744Z,98940
2023-01-17T07:28:00.779Z,98940
2023-01-17T07:29:00.937Z,98930
2023-01-17T07:30:00.802Z,98930
2023-01-17T07:31:05.033Z,98930
2023-01-17T07:32:00.734Z,98940
2023-01-17T07:33:00.761Z,98930
2023-01-17T07:34:00.762Z,98930
2023-01-17T07:35:00.792Z,98930
2023-01-17T07:36:02.619Z,98930
2023-01-17T07:37:00.782Z,98930
2023-01-17T07:38:01.167Z,98930
2023-01-17T07:39:01.002Z,98930
2023-01-17T07:40:00.752Z,98930
2023-01-17T07:41:01.044Z,98940
2023-01-17T07:42:00.762Z,98930
2023-01-17T07:43:01.027Z,98930
2023-01-17T07:44:00.931Z,98930
2023-01-17T07:45:00.748Z,98930
2023-01-17T07:46:02.188Z,98930
2023-01-17T07:47:00.953Z,98920
2023-01-17T07:48:00.736Z,98920
2023-01-17T07:49:01.270Z,98920
2023-01-17T07:50:00.757Z,98930
2023-01-17T07:51:00.856Z,98930
2023-01-17T07:52:00.764Z,98940
2023-01-17T07:53:01.142Z,98940
2023-01-17T07:54:01.070Z,98940
2023-01-17T07:55:00.900Z,98940
2023-01-17T07:56:02.018Z,98940
2023-01-17T07:57:01.288Z,98940
2023-01-17T07:58:02.980Z,98940
2023-01-17T07:59:00.760Z,98940
2023-01-17T08:00:00.943Z,98950
2023-01-17T08:01:02.126Z,98950
2023-01-17T08:02:00.932Z,98950
2023-01-17T08:03:00.765Z,98950
2023-01-17T08:04:00.858Z,98950
2023-01-17T08:05:00.750Z,98960
2023-01-17T08:06:01.358Z,98950
2023-01-17T08:07:00.797Z,98960
2023-01-17T08:08:00.739Z,98950
2023-01-17T08:09:00.985Z,98960
2023-01-17T08:10:00.799Z,98960
2023-01-17T08:11:00.766Z,98950
2023-01-17T08:12:00.903Z,98960
2023-01-17T08:13:00.794Z,98970
2023-01-17T08:14:00.769Z,98960
2023-01-17T08:15:00.914Z,98970
2023-01-17T08:16:00.834Z,98980
2023-01-17T08:17:04.730Z,98970
2023-01-17T08:18:00.750Z,98990
2023-01-17T08:19:00.777Z,98980
2023-01-17T08:20:00.994Z,98970
2023-01-17T08:21:00.759Z,98950
2023-01-17T08:22:00.782Z,98960
2023-01-17T08:23:00.773Z,98950
2023-01-17T08:24:00.748Z,98950
2023-01-17T08:25:00.863Z,98940
2023-01-17T08:26:00.919Z,98960
2023-01-17T08:27:00.787Z,99010
2023-01-17T08:28:00.964Z,99080
2023-01-17T08:29:00.847Z,99100
2023-01-17T08:30:00.782Z,99100
2023-01-17T08:31:07.750Z,99110
2023-01-17T08:32:00.895Z,99130
2023-01-17T08:33:00.829Z,99130
2023-01-17T08:34:00.806Z,99140
2023-01-17T08:35:00.762Z,99150
2023-01-17T08:36:00.786Z,99150
2023-01-17T08:37:00.804Z,99150
2023-01-17T08:38:00.817Z,99140
2023-01-17T08:39:00.788Z,99140
2023-01-17T08:40:00.745Z,99150
2023-01-17T08:41:00.972Z,99150
2023-01-17T08:42:00.990Z,99150
2023-01-17T08:43:00.740Z,99140
2023-01-17T08:44:00.951Z,99150
2023-01-17T08:45:00.779Z,99150
2023-01-17T08:46:00.929Z,99150
2023-01-17T08:47:00.809Z,99150
2023-01-17T08:48:00.943Z,99160
2023-01-17T08:49:00.762Z,99150
2023-01-17T08:50:00.830Z,99170
2023-01-17T08:51:01.613Z,99170
2023-01-17T08:52:00.752Z,99180
2023-01-17T08:53:01.466Z,99180
2023-01-17T08:54:00.744Z,99180
2023-01-17T08:55:00.925Z,99180
2023-01-17T08:56:01.607Z,99170
2023-01-17T08:57:00.973Z,99170
2023-01-17T08:58:00.765Z,99170
2023-01-17T08:59:00.805Z,99160
2023-01-17T09:00:00.889Z,99160
2023-01-17T09:01:01.599Z,99160
2023-01-17T09:02:00.920Z,99140
2023-01-17T09:03:00.783Z,99150
2023-01-17T09:04:01.026Z,99150
2023-01-17T09:05:00.837Z,99150
2023-01-17T09:06:01.921Z,99150
2023-01-17T09:07:00.739Z,99160
2023-01-17T09:08:00.810Z,99160
2023-01-17T09:09:00.737Z,99150
2023-01-17T09:10:00.881Z,99150
2023-01-17T09:11:04.915Z,99160
2023-01-17T09:12:00.808Z,99150
2023-01-17T09:13:00.890Z,99160
2023-01-17T09:14:00.772Z,99160
2023-01-17T09:15:01.000Z,99170
2023-01-17T09:16:01.213Z,99170
2023-01-17T09:17:01.316Z,99180
2023-01-17T09:18:00.798Z,99190
2023-01-17T09:19:00.792Z,99180
2023-01-17T09:20:00.919Z,99170
2023-01-17T09:21:09.521Z,99180
2023-01-17T09:22:01.082Z,99180
2023-01-17T09:23:01.479Z,99180
2023-01-17T09:24:00.743Z,99180
2023-01-17T09:25:00.889Z,99190
2023-01-17T09:26:00.977Z,99190
2023-01-17T09:27:00.758Z,99190
2023-01-17T09:28:00.774Z,99200
2023-01-17T09:29:00.938Z,99200
2023-01-17T09:30:00.769Z,99200
2023-01-17T09:31:05.028Z,99200
2023-01-17T09:32:00.847Z,99210
2023-01-17T09:33:00.787Z,99200
2023-01-17T09:34:00.776Z,99210
2023-01-17T09:35:01.073Z,99210
2023-01-17T09:36:01.002Z,99200
2023-01-17T09:37:00.884Z,99200
2023-01-17T09:38:00.777Z,99200
2023-01-17T09:39:01.594Z,99200
2023-01-17T09:40:00.745Z,99200
2023-01-17T09:41:01.698Z,99200
2023-01-17T09:42:10.654Z,99210
2023-01-17T09:43:03.795Z,99200
2023-01-17T09:44:04.167Z,99200
2023-01-17T09:45:00.932Z,99200
2023-01-17T09:46:00.830Z,99210
2023-01-17T09:47:06.540Z,99210
2023-01-17T09:48:05.679Z,99210
2023-01-17T09:49:06.406Z,99210
2023-01-17T09:50:10.610Z,99210
2023-01-17T09:51:07.422Z,99210
2023-01-17T09:52:01.029Z,99210
2023-01-17T09:53:04.887Z,99230
2023-01-17T09:54:00.969Z,99230
2023-01-17T09:55:00.855Z,99230
2023-01-17T09:56:03.487Z,99230
2023-01-17T09:57:01.745Z,99220
2023-01-17T09:58:04.040Z,99220
2023-01-17T09:59:04.484Z,99220
2023-01-17T10:00:03.896Z,99220
2023-01-17T10:01:10.767Z,99210
2023-01-17T10:02:08.386Z,99220
2023-01-17T10:03:10.805Z,99220
2023-01-17T10:04:07.422Z,99240
2023-01-17T10:05:10.749Z,99230
2023-01-17T10:06:00.747Z,99240
2023-01-17T10:07:10.643Z,99250
2023-01-17T10:08:08.192Z,99240
2023-01-17T10:09:04.735Z,99230
2023-01-17T10:10:10.641Z,99220
2023-01-17T10:11:00.810Z,99210
2023-01-17T10:12:10.654Z,99210
2023-01-17T10:13:01.765Z,99200
2023-01-17T10:14:01.804Z,99190
2023-01-17T10:15:10.758Z,99190
2023-01-17T10:16:04.189Z,99200
2023-01-17T10:17:00.750Z,99190
2023-01-17T10:18:19.092Z,99190
2023-01-17T10:19:00.733Z,99180
2023-01-17T10:20:00.734Z,99190
2023-01-17T10:21:01.951Z,99180
2023-01-17T10:22:00.889Z,99170
2023-01-17T10:23:00.729Z,99170
2023-01-17T10:24:10.654Z,99180
2023-01-17T10:25:07.228Z,99190
2023-01-17T10:26:03.383Z,99190
2023-01-17T10:27:01.151Z,99190
2023-01-17T10:28:05.560Z,99190
2023-01-17T10:29:03.272Z,99190
2023-01-17T10:30:02.839Z,99180
2023-01-17T10:31:06.563Z,99190
2023-01-17T10:32:01.836Z,99190
2023-01-17T10:33:08.189Z,99200
2023-01-17T10:34:10.618Z,99200
2023-01-17T10:35:10.165Z,99200
2023-01-17T10:36:04.724Z,99200
2023-01-17T10:37:04.997Z,99200
2023-01-17T10:38:03.925Z,99220
2023-01-17T10:39:03.720Z,99200
2023-01-17T10:40:10.568Z,99210
2023-01-17T10:41:04.077Z,99230
2023-01-17T10:42:06.207Z,99230
2023-01-17T10:43:05.442Z,99230
2023-01-17T10:44:00.768Z,99210
2023-01-17T10:45:10.651Z,99210
2023-01-17T10:46:01.279Z,99200
2023-01-17T10:47:04.114Z,99210
2023-01-17T10:48:10.722Z,99210
2023-01-17T10:49:01.261Z,99210
2023-01-17T10:50:01.525Z,99200
2023-01-17T10:51:10.185Z,99210
2023-01-17T10:52:01.821Z,99210
2023-01-17T10:53:08.696Z,99200
2023-01-17T10:54:02.913Z,99210
2023-01-17T10:55:08.604Z,99210
2023-01-17T10:56:00.913Z,99240
2023-01-17T10:57:00.839Z,99220
2023-01-17T10:58:01.973Z,99210
2023-01-17T10:59:08.161Z,99210
2023-01-17T11:00:00.957Z,99210
2023-01-17T11:01:02.108Z,99200
2023-01-17T11:02:01.212Z,99190
2023-01-17T11:03:01.415Z,99180
2023-01-17T11:04:01.208Z,99180
2023-01-17T11:05:10.407Z,99180
2023-01-17T11:06:10.663Z,99180
2023-01-17T11:07:10.651Z,99190
2023-01-17T11:08:02.100Z,99180
2023-01-17T11:09:00.806Z,99180
2023-01-17T11:10:00.750Z,99180
2023-01-17T11:11:02.501Z,99170
2023-01-17T11:12:00.820Z,99170
2023-01-17T11:13:01.589Z,99170
2023-01-17T11:14:04.088Z,99160
2023-01-17T11:15:04.144Z,99150
2023-01-17T11:16:03.934Z,99160
2023-01-17T11:17:02.193Z,99140
2023-01-17T11:18:02.151Z,99140
2023-01-17T11:19:10.657Z,99120
2023-01-17T11:20:10.636Z,99150
2023-01-17T11:21:10.636Z,99140
2023-01-17T11:22:02.636Z,99130
2023-01-17T11:23:04.088Z,99120
2023-01-17T11:24:08.561Z,99120
2023-01-17T11:25:00.947Z,99080
2023-01-17T11:26:01.920Z,99100
2023-01-17T11:27:03.147Z,99110
2023-01-17T11:28:03.744Z,99120
2023-01-17T11:29:10.620Z,99110
2023-01-17T11:30:02.606Z,99110
2023-01-17T11:31:03.370Z,99120
2023-01-17T11:32:10.664Z,99110
2023-01-17T11:33:02.559Z,99130
2023-01-17T11:34:05.509Z,99110
2023-01-17T11:35:04.076Z,99110
2023-01-17T11:36:00.781Z,99110
2023-01-17T11:37:10.626Z,99110
2023-01-17T11:38:01.830Z,99120
2023-01-17T11:39:00.740Z,99110
2023-01-17T11:40:08.636Z,99100
2023-01-17T11:41:07.620Z,99100
2023-01-17T11:42:04.579Z,99110
2023-01-17T11:43:02.752Z,99110
2023-01-17T11:44:01.441Z,99120
2023-01-17T11:45:10.632Z,99110
2023-01-17T11:46:10.653Z,99110
2023-01-17T11:47:10.648Z,99120
2023-01-17T11:48:10.660Z,99110
2023-01-17T11:49:00.797Z,99110
2023-01-17T11:50:00.814Z,99100
2023-01-17T11:51:01.266Z,99100
2023-01-17T11:52:06.970Z,99110
2023-01-17T11:53:10.650Z,99120
2023-01-17T11:54:10.642Z,99110
2023-01-17T11:55:00.974Z,99120
2023-01-17T11:56:04.014Z,99110
2023-01-17T11:57:01.290Z,99110
2023-01-17T11:58:00.797Z,99120
2023-01-17T11:59:10.647Z,99120
2023-01-17T12:00:08.179Z,99110
2023-01-17T12:01:10.694Z,99110
2023-01-17T12:02:00.721Z,99110
2023-01-17T12:03:10.692Z,99110
2023-01-17T12:04:00.844Z,99110
2023-01-17T12:05:08.238Z,99120
2023-01-17T12:06:06.827Z,99120
2023-01-17T12:07:10.635Z,99130
2023-01-17T12:08:01.799Z,99120
2023-01-17T12:09:10.683Z,99110
2023-01-17T12:10:09.410Z,99120
2023-01-17T12:11:06.239Z,99120
2023-01-17T12:12:00.812Z,99120
2023-01-17T12:13:10.624Z,99120
2023-01-17T12:14:10.634Z,99130
2023-01-17T12:15:10.648Z,99130
2023-01-17T12:16:01.829Z,99140
2023-01-17T12:17:09.618Z,99140
2023-01-17T12:18:10.649Z,99120
2023-01-17T12:19:10.647Z,99130
2023-01-17T12:20:02.679Z,99120
2023-01-17T12:21:01.789Z,99120
2023-01-17T12:22:10.690Z,99120
2023-01-17T12:23:11.579Z,99130
2023-01-17T12:24:10.648Z,99120
2023-01-17T12:25:07.603Z,99120
2023-01-17T12:26:08.142Z,99120
2023-01-17T12:27:10.652Z,99120
2023-01-17T12:28:10.652Z,99110
2023-01-17T12:29:10.651Z,99120
2023-01-17T12:30:00.743Z,99110
2023-01-17T12:31:10.750Z,99110
2023-01-17T12:32:00.767Z,99110
2023-01-17T12:33:00.762Z,99100
2023-01-17T12:34:10.665Z,99110
2023-01-17T12:35:10.623Z,99110
2023-01-17T12:36:03.388Z,99100
2023-01-17T12:37:05.926Z,99100
2023-01-17T12:38:05.380Z,99090
2023-01-17T12:39:04.095Z,99080
2023-01-17T12:40:09.594Z,99090
2023-01-17T12:41:00.729Z,99090
2023-01-17T12:42:04.441Z,99090
2023-01-17T12:43:00.755Z,99090
2023-01-17T12:44:00.774Z,99090
2023-01-17T12:45:04.844Z,99060
2023-01-17T12:46:04.510Z,99080
2023-01-17T12:47:02.471Z,99080
2023-01-17T12:48:04.775Z,99090
2023-01-17T12:49:07.599Z,99070
2023-01-17T12:50:05.604Z,99080
2023-01-17T12:51:10.713Z,99070
2023-01-17T12:52:06.605Z,99080